createdAt,value
2022-11-09T00:01:30.945Z,67.27
2022-11-09T00:04:21.088Z,67.74
2022-11-09T00:07:03.982Z,67.65
2022-11-09T00:09:53.143Z,67.77
2022-11-09T00:12:41.291Z,68.19
2022-11-09T00:15:24.017Z,68.22
2022-11-09T00:18:06.174Z,67.66
2022-11-09T00:20:55.028Z,67.66
2022-11-09T00:23:44.471Z,67.68
2022-11-09T00:26:28.085Z,68.16
2022-11-09T00:29:17.481Z,68.15
2022-11-09T00:31:59.067Z,68.33
2022-11-09T00:34:53.876Z,68.41
2022-11-09T00:37:44.058Z,69.30
2022-11-09T00:40:33.004Z,69.36
2022-11-09T00:43:15.286Z,69.89
2022-11-09T00:46:04.015Z,69.85
2022-11-09T00:48:53.013Z,70.27
2022-11-09T00:51:35.316Z,70.41
2022-11-09T00:54:25.009Z,71.06
2022-11-09T00:57:07.279Z,70.62
2022-11-09T00:59:59.995Z,70.45
2022-11-09T01:02:42.277Z,70.82
2022-11-09T01:05:31.225Z,71.15
2022-11-09T01:08:21.017Z,71.34
2022-11-09T01:11:11.139Z,70.37
2022-11-09T01:13:59.922Z,70.70
2022-11-09T01:16:51.027Z,70.65
2022-11-09T01:19:35.301Z,70.55
2022-11-09T01:22:25.008Z,70.29
2022-11-09T01:25:13.915Z,71.08
2022-11-09T01:28:03.303Z,71.18
2022-11-09T01:30:51.037Z,70.26
2022-11-09T01:33:33.726Z,70.25
2022-11-09T01:36:27.066Z,70.65
2022-11-09T01:39:09.188Z,70.15
2022-11-09T01:41:58.018Z,70.10
2022-11-09T01:44:40.487Z,69.95
2022-11-09T01:47:38.001Z,69.92
2022-11-09T01:50:29.100Z,70.13
2022-11-09T01:53:21.366Z,71.06
2022-11-09T01:56:06.341Z,70.76
2022-11-09T01:59:17.916Z,69.90
2022-11-09T02:02:01.996Z,70.45
2022-11-09T02:05:02.013Z,70.58
2022-11-09T02:07:52.329Z,69.73
2022-11-09T02:10:51.273Z,69.71
2022-11-09T02:13:41.047Z,69.28
2022-11-09T02:16:24.306Z,69.16
2022-11-09T02:19:13.984Z,69.92
2022-11-09T02:22:04.999Z,68.48
2022-11-09T02:24:47.239Z,67.71
2022-11-09T02:27:35.987Z,65.24
2022-11-09T02:30:27.917Z,63.55
2022-11-09T02:33:10.264Z,63.57
2022-11-09T02:36:06.027Z,65.83
2022-11-09T02:38:49.196Z,62.95
2022-11-09T02:41:39.131Z,62.14
2022-11-09T02:44:28.453Z,61.95
2022-11-09T02:47:10.966Z,61.75
2022-11-09T02:49:54.372Z,61.28
2022-11-09T02:52:42.980Z,61.97
2022-11-09T02:55:26.275Z,65.34
2022-11-09T02:58:14.911Z,63.72
2022-11-09T03:01:04.005Z,62.59
2022-11-09T03:03:46.313Z,62.04
2022-11-09T03:06:41.961Z,61.78
2022-11-09T03:09:27.286Z,62.71
2022-11-09T03:12:34.875Z,64.06
2022-11-09T03:15:26.994Z,63.30
2022-11-09T03:18:15.912Z,60.74
2022-11-09T03:21:04.987Z,58.99
2022-11-09T03:23:47.493Z,58.22
2022-11-09T03:26:35.968Z,56.74
2022-11-09T03:29:25.900Z,56.15
2022-11-09T03:32:09.285Z,56.27
2022-11-09T03:34:59.311Z,55.41
2022-11-09T03:37:47.355Z,55.82
2022-11-09T03:40:29.994Z,55.31
2022-11-09T03:43:18.659Z,53.60
2022-11-09T03:46:01.995Z,52.87
2022-11-09T03:48:50.293Z,54.49
2022-11-09T03:51:32.964Z,55.83
2022-11-09T03:54:29.164Z,53.58
2022-11-09T03:57:17.266Z,53.75
2022-11-09T03:59:59.055Z,50.47
2022-11-09T04:02:47.444Z,52.19
2022-11-09T04:05:37.007Z,51.20
2022-11-09T04:08:19.329Z,50.24
2022-11-09T04:11:07.882Z,50.63
2022-11-09T04:13:56.931Z,50.11
2022-11-09T04:16:40.387Z,49.08
2022-11-09T04:19:31.004Z,49.45
2022-11-09T04:22:13.412Z,50.06
2022-11-09T04:25:01.957Z,49.83
2022-11-09T04:27:50.985Z,48.72
2022-11-09T04:30:35.103Z,49.73
2022-11-09T04:33:24.974Z,48.93
2022-11-09T04:36:14.267Z,49.13
2022-11-09T04:38:56.981Z,49.08
2022-11-09T04:41:45.964Z,50.41
2022-11-09T04:44:34.888Z,46.97
2022-11-09T04:47:23.920Z,48.67
2022-11-09T04:50:06.227Z,48.45
2022-11-09T04:52:54.986Z,48.50
2022-11-09T04:55:37.238Z,48.31
2022-11-09T04:58:25.911Z,48.37
2022-11-09T05:01:18.304Z,46.75
2022-11-09T05:04:06.994Z,47.13
2022-11-09T05:06:49.285Z,46.70
2022-11-09T05:09:38.029Z,48.13
2022-11-09T05:12:21.249Z,47.62
2022-11-09T05:15:09.972Z,46.60
2022-11-09T05:17:52.270Z,48.40
2022-11-09T05:20:41.015Z,46.25
2022-11-09T05:23:41.449Z,46.84
2022-11-09T05:26:29.916Z,47.27
2022-11-09T05:29:17.255Z,47.21
2022-11-09T05:32:05.986Z,47.20
2022-11-09T05:34:48.246Z,46.63
2022-11-09T05:37:36.979Z,47.00
2022-11-09T05:40:26.000Z,45.21
2022-11-09T05:43:08.163Z,46.26
2022-11-09T05:45:56.899Z,45.82
2022-11-09T05:48:45.883Z,46.77
2022-11-09T05:51:28.370Z,47.58
2022-11-09T05:54:16.964Z,46.50
2022-11-09T05:57:05.908Z,43.59
2022-11-09T05:59:54.888Z,45.16
2022-11-09T06:02:41.244Z,41.95
2022-11-09T06:05:30.150Z,42.07
2022-11-09T06:08:14.273Z,40.86
2022-11-09T06:11:07.883Z,43.37
2022-11-09T06:13:56.882Z,44.36
2022-11-09T06:16:45.274Z,42.02
2022-11-09T06:19:27.998Z,45.00
2022-11-09T06:22:16.884Z,43.25
2022-11-09T06:25:05.997Z,42.08
2022-11-09T06:27:54.258Z,41.72
2022-11-09T06:30:36.990Z,41.99
2022-11-09T06:33:25.984Z,41.58
2022-11-09T06:36:08.313Z,42.56
2022-11-09T06:38:59.895Z,41.53
2022-11-09T06:41:48.879Z,41.88
2022-11-09T06:44:37.263Z,39.55
2022-11-09T06:47:19.966Z,39.97
2022-11-09T06:50:08.971Z,41.85
2022-11-09T06:52:51.248Z,44.30
2022-11-09T06:55:45.821Z,41.55
2022-11-09T06:58:32.269Z,41.49
2022-11-09T07:01:25.020Z,39.87
2022-11-09T07:04:07.314Z,39.92
2022-11-09T07:06:56.081Z,43.68
2022-11-09T07:09:38.278Z,41.63
2022-11-09T07:12:26.965Z,41.49
2022-11-09T07:15:10.286Z,42.54
2022-11-09T07:17:58.889Z,42.57
2022-11-09T07:20:47.956Z,43.50
2022-11-09T07:23:30.200Z,45.69
2022-11-09T07:26:19.027Z,46.06
2022-11-09T07:29:07.260Z,46.53
2022-11-09T07:31:49.899Z,46.22
2022-11-09T07:34:38.285Z,46.93
2022-11-09T07:37:26.976Z,47.81
2022-11-09T07:40:09.253Z,48.95
2022-11-09T07:42:57.983Z,49.49
2022-11-09T07:45:42.263Z,49.83
2022-11-09T07:48:30.970Z,50.21
2022-11-09T07:51:13.246Z,50.01
2022-11-09T07:54:02.349Z,49.80
2022-11-09T07:56:45.257Z,50.84
2022-11-09T07:59:33.961Z,49.88
2022-11-09T08:02:17.358Z,50.20
2022-11-09T08:05:06.129Z,48.79
2022-11-09T08:07:49.074Z,49.85
2022-11-09T08:10:40.097Z,49.22
2022-11-09T08:13:23.954Z,48.80
2022-11-09T08:16:13.067Z,49.90
2022-11-09T08:18:57.300Z,51.97
2022-11-09T08:21:47.459Z,51.69
2022-11-09T08:24:36.136Z,50.58
2022-11-09T08:27:26.821Z,50.58
2022-11-09T08:30:10.658Z,51.54
2022-11-09T08:33:00.970Z,53.58
2022-11-09T08:35:57.850Z,51.34
2022-11-09T08:38:55.433Z,51.11
2022-11-09T08:41:44.927Z,50.01
2022-11-09T08:44:28.806Z,49.83
2022-11-09T08:47:12.939Z,50.57
2022-11-09T08:50:02.988Z,50.25
2022-11-09T08:52:53.399Z,50.13
2022-11-09T08:55:47.009Z,50.41
2022-11-09T08:58:39.708Z,51.82
2022-11-09T09:01:22.835Z,52.15
2022-11-09T09:04:13.648Z,51.33
2022-11-09T09:06:57.912Z,51.84
2022-11-09T09:09:46.878Z,50.31
2022-11-09T09:12:31.998Z,49.98
2022-11-09T09:15:22.472Z,49.91
2022-11-09T09:18:08.403Z,50.49
2022-11-09T09:20:58.002Z,49.67
2022-11-09T09:23:48.599Z,49.42
2022-11-09T09:26:38.143Z,49.42
2022-11-09T09:29:23.280Z,50.51
2022-11-09T09:32:13.430Z,50.56
2022-11-09T09:34:59.376Z,52.54
2022-11-09T09:37:55.465Z,51.68
2022-11-09T09:41:05.944Z,52.62
2022-11-09T09:43:58.357Z,57.83
2022-11-09T09:46:46.913Z,54.74
2022-11-09T09:49:45.088Z,55.62
2022-11-09T09:53:04.737Z,56.32
2022-11-09T09:56:01.974Z,54.17
2022-11-09T09:59:15.974Z,55.58
2022-11-09T10:01:59.640Z,54.48
2022-11-09T10:04:50.310Z,53.71
2022-11-09T10:07:39.731Z,55.57
2022-11-09T10:10:48.775Z,54.62
2022-11-09T10:13:41.889Z,54.67
2022-11-09T10:16:51.735Z,54.21
2022-11-09T10:19:47.978Z,53.75
2022-11-09T10:22:40.646Z,53.01
2022-11-09T10:26:03.004Z,52.50
2022-11-09T10:32:07.224Z,50.64
2022-11-09T10:35:21.730Z,52.76
2022-11-09T10:38:18.735Z,52.61
2022-11-09T10:41:52.643Z,52.85
2022-11-09T10:44:54.614Z,52.44
2022-11-09T10:48:03.630Z,53.02
2022-11-09T10:51:12.009Z,52.96
2022-11-09T10:54:29.642Z,52.56
2022-11-09T10:57:40.618Z,52.90
2022-11-09T11:01:02.714Z,53.42
2022-11-09T11:04:11.951Z,53.36
2022-11-09T11:07:21.433Z,53.81
2022-11-09T11:10:32.276Z,53.61
2022-11-09T11:13:38.985Z,55.09
2022-11-09T11:16:51.507Z,53.46
2022-11-09T11:19:54.243Z,53.49
2022-11-09T11:23:01.518Z,53.69
2022-11-09T11:26:32.953Z,54.45
2022-11-09T11:29:42.446Z,55.09
2022-11-09T11:32:50.902Z,54.88
2022-11-09T11:36:09.451Z,55.23
2022-11-09T11:39:38.949Z,54.61
2022-11-09T11:42:57.244Z,54.58
2022-11-09T11:46:24.877Z,53.84
2022-11-09T11:49:35.426Z,54.52
2022-11-09T11:52:47.965Z,54.95
2022-11-09T11:55:59.030Z,54.46
2022-11-09T11:59:41.961Z,53.87
2022-11-09T12:03:25.989Z,53.89
2022-11-09T12:07:04.690Z,53.55
2022-11-09T12:10:30.002Z,52.93
2022-11-09T12:13:49.676Z,53.31
2022-11-09T12:16:56.982Z,54.36
2022-11-09T12:20:15.901Z,54.14
2022-11-09T12:23:42.862Z,55.24
2022-11-09T12:27:30.524Z,54.69
2022-11-09T12:30:37.862Z,55.92
2022-11-09T12:34:04.713Z,54.57
2022-11-09T12:37:38.948Z,54.59
2022-11-09T12:41:01.964Z,55.46
2022-11-09T12:44:21.844Z,55.25
2022-11-09T12:47:36.952Z,56.54
2022-11-09T12:50:39.386Z,55.25
2022-11-09T12:53:47.953Z,55.05
2022-11-09T12:57:12.244Z,54.32
2022-11-09T13:00:41.981Z,55.58
2022-11-09T13:03:52.944Z,56.08
2022-11-09T13:07:37.942Z,56.25
2022-11-09T13:10:52.949Z,57.24
2022-11-09T13:13:59.950Z,59.04
2022-11-09T13:17:02.239Z,59.05
2022-11-09T13:20:08.963Z,60.10
2022-11-09T13:23:31.413Z,60.25
2022-11-09T13:26:57.950Z,60.38
2022-11-09T13:29:59.377Z,59.75
2022-11-09T13:33:14.945Z,60.21
2022-11-09T13:36:22.936Z,59.82
2022-11-09T13:39:47.236Z,60.08
2022-11-09T13:42:47.957Z,59.95
2022-11-09T13:46:11.955Z,59.99
2022-11-09T13:50:04.867Z,60.70
2022-11-09T13:53:25.345Z,60.47
2022-11-09T13:56:53.928Z,60.85
2022-11-09T13:59:54.653Z,60.37
2022-11-09T14:03:19.975Z,60.37
2022-11-09T14:06:21.257Z,60.88
2022-11-09T14:09:33.022Z,60.09
2022-11-09T14:13:15.591Z,60.84
2022-11-09T14:16:52.938Z,60.15
2022-11-09T14:20:27.430Z,60.04
2022-11-09T14:23:39.224Z,60.80
2022-11-09T14:26:40.286Z,60.57
2022-11-09T14:29:47.935Z,60.50
2022-11-09T14:33:01.948Z,60.10
2022-11-09T14:36:14.008Z,60.47
2022-11-09T14:39:50.840Z,60.77
2022-11-09T14:42:59.957Z,60.74
2022-11-09T14:46:04.216Z,61.59
2022-11-09T14:49:11.849Z,60.17
2022-11-09T14:52:19.517Z,60.64
2022-11-09T14:55:29.927Z,60.49
2022-11-09T14:58:40.309Z,60.45
2022-11-09T15:01:40.381Z,61.54
2022-11-09T15:05:12.939Z,61.78
2022-11-09T15:08:23.765Z,61.95
2022-11-09T15:11:49.911Z,60.14
2022-11-09T15:14:56.503Z,59.75
2022-11-09T15:18:03.988Z,59.18
2022-11-09T15:21:27.343Z,59.20
2022-11-09T15:24:36.939Z,59.80
2022-11-09T15:27:43.221Z,59.82
2022-11-09T15:31:02.940Z,61.08
2022-11-09T15:34:05.746Z,61.33
2022-11-09T15:37:26.949Z,62.27
2022-11-09T15:40:37.921Z,60.02
2022-11-09T15:43:39.378Z,60.27
2022-11-09T15:47:03.018Z,60.32
2022-11-09T15:50:24.622Z,62.41
2022-11-09T15:53:31.904Z,62.09
2022-11-09T15:56:39.944Z,60.77
2022-11-09T15:59:40.233Z,60.35
2022-11-09T16:02:46.933Z,60.84
2022-11-09T16:05:48.373Z,61.32
2022-11-09T16:08:56.947Z,61.70
2022-11-09T16:11:58.602Z,60.87
2022-11-09T16:15:06.917Z,61.85
2022-11-09T16:18:14.911Z,61.65
2022-11-09T16:21:24.856Z,62.34
2022-11-09T16:24:25.469Z,60.74
2022-11-09T16:30:59.037Z,61.58
2022-11-09T16:34:00.424Z,62.63
2022-11-09T16:37:07.909Z,61.72
2022-11-09T16:40:12.383Z,62.67
2022-11-09T16:43:18.952Z,61.03
2022-11-09T16:46:33.976Z,60.83
2022-11-09T16:49:34.353Z,58.99
2022-11-09T16:52:41.917Z,60.25
2022-11-09T16:55:48.849Z,59.74
2022-11-09T16:58:50.418Z,60.37
2022-11-09T17:01:50.982Z,58.39
2022-11-09T17:04:52.394Z,58.08
2022-11-09T17:07:59.941Z,57.61
2022-11-09T17:11:06.864Z,58.66
2022-11-09T17:14:07.848Z,58.64
2022-11-09T17:17:18.325Z,58.44
2022-11-09T17:20:22.727Z,59.58
2022-11-09T17:23:32.983Z,59.28
2022-11-09T17:26:34.627Z,60.45
2022-11-09T17:29:42.924Z,58.92
2022-11-09T17:32:44.094Z,59.53
2022-11-09T17:35:50.929Z,59.32
2022-11-09T17:38:59.246Z,59.96
2022-11-09T17:41:59.940Z,59.52
2022-11-09T17:45:01.085Z,59.48
2022-11-09T17:48:09.918Z,59.90
2022-11-09T17:51:17.916Z,60.65
2022-11-09T17:54:24.925Z,60.81
2022-11-09T17:57:26.087Z,61.17
2022-11-09T18:00:33.945Z,60.36
2022-11-09T18:03:46.962Z,60.71
2022-11-09T18:06:47.414Z,60.73
2022-11-09T18:09:54.995Z,60.36
2022-11-09T18:13:01.967Z,60.15
2022-11-09T18:16:23.825Z,60.35
2022-11-09T18:19:25.250Z,61.17
2022-11-09T18:22:32.839Z,61.32
2022-11-09T18:25:34.296Z,60.42
2022-11-09T18:28:42.837Z,60.82
2022-11-09T18:31:50.268Z,61.10
2022-11-09T18:34:51.206Z,60.24
2022-11-09T18:37:58.914Z,60.80
2022-11-09T18:41:16.813Z,60.43
2022-11-09T18:44:25.083Z,60.30
2022-11-09T18:47:26.631Z,60.32
2022-11-09T18:50:34.912Z,60.22
2022-11-09T18:53:49.890Z,59.96
2022-11-09T18:56:56.979Z,61.38
2022-11-09T18:59:58.280Z,61.30
2022-11-09T19:03:04.839Z,60.97
2022-11-09T19:06:15.069Z,60.80
2022-11-09T19:09:36.853Z,60.79
2022-11-09T19:12:37.076Z,60.37
2022-11-09T19:15:45.820Z,61.00
2022-11-09T19:18:47.211Z,60.37
2022-11-09T19:22:07.904Z,60.91
2022-11-09T19:25:08.691Z,62.08
2022-11-09T19:28:16.795Z,61.59
2022-11-09T19:31:26.945Z,62.11
2022-11-09T19:34:29.364Z,62.78
2022-11-09T19:37:35.819Z,63.43
2022-11-09T19:40:39.750Z,61.89
2022-11-09T19:43:47.871Z,62.39
2022-11-09T19:46:49.351Z,61.91
2022-11-09T19:49:55.800Z,62.26
2022-11-09T19:52:56.565Z,61.33
2022-11-09T19:56:09.813Z,61.16
2022-11-09T19:59:17.946Z,61.98
2022-11-09T20:02:18.255Z,62.71
2022-11-09T20:05:25.831Z,63.54
2022-11-09T20:08:27.999Z,64.00
2022-11-09T20:11:56.912Z,64.88
2022-11-09T20:15:03.943Z,64.60
2022-11-09T20:18:04.189Z,64.96
2022-11-09T20:21:14.918Z,65.25
2022-11-09T20:24:16.333Z,65.09
2022-11-09T20:27:26.906Z,65.08
2022-11-09T20:30:29.189Z,65.01
2022-11-09T20:33:36.818Z,65.72
2022-11-09T20:36:37.231Z,65.39
2022-11-09T20:39:43.797Z,65.18
2022-11-09T20:42:44.698Z,65.50
2022-11-09T20:45:51.798Z,65.68
2022-11-09T20:48:54.939Z,64.88
2022-11-09T20:52:02.821Z,65.13
2022-11-09T20:55:10.926Z,64.39
2022-11-09T20:58:22.275Z,62.68
2022-11-09T21:01:26.267Z,62.77
2022-11-09T21:04:33.897Z,63.63
2022-11-09T21:07:34.180Z,64.31
2022-11-09T21:10:40.909Z,64.26
2022-11-09T21:13:42.544Z,64.07
2022-11-09T21:16:50.819Z,63.98
2022-11-09T21:19:52.527Z,64.54
2022-11-09T21:23:19.824Z,62.82
2022-11-09T21:26:44.920Z,63.46
2022-11-09T21:30:00.801Z,63.24
2022-11-09T21:33:07.884Z,64.41
2022-11-09T21:36:19.890Z,64.71
2022-11-09T21:39:28.217Z,62.92
2022-11-09T21:42:28.913Z,64.64
2022-11-09T21:45:35.885Z,64.51
2022-11-09T21:48:36.211Z,64.68
2022-11-09T21:51:44.812Z,64.60
2022-11-09T21:54:46.194Z,63.96
2022-11-09T21:57:56.900Z,64.72
2022-11-09T22:00:57.216Z,64.32
2022-11-09T22:04:03.804Z,64.91
2022-11-09T22:07:10.957Z,64.26
2022-11-09T22:10:11.781Z,65.11
2022-11-09T22:13:36.908Z,64.75
2022-11-09T22:16:37.094Z,64.59
2022-11-09T22:20:01.818Z,65.66
2022-11-09T22:23:14.891Z,65.32
2022-11-09T22:26:15.339Z,65.40
2022-11-09T22:29:21.828Z,65.53
2022-11-09T22:32:23.188Z,66.07
2022-11-09T22:35:29.900Z,65.82
2022-11-09T22:38:36.871Z,66.41
2022-11-09T22:41:38.129Z,66.20
2022-11-09T22:44:44.870Z,66.68
2022-11-09T22:47:46.094Z,65.67
2022-11-09T22:50:52.802Z,66.39
2022-11-09T22:53:54.180Z,66.26
2022-11-09T22:57:00.786Z,66.82
2022-11-09T23:00:01.080Z,66.43
2022-11-09T23:03:11.885Z,66.91
2022-11-09T23:06:17.392Z,67.32
2022-11-09T23:09:23.795Z,66.85
2022-11-09T23:12:31.833Z,67.01
2022-11-09T23:15:32.199Z,67.51
2022-11-09T23:18:58.787Z,67.40
2022-11-09T23:21:59.162Z,67.73
2022-11-09T23:25:23.815Z,67.69
2022-11-09T23:28:24.182Z,67.92
2022-11-09T23:31:32.890Z,67.90
2022-11-09T23:34:39.887Z,68.36
2022-11-09T23:37:52.750Z,67.79
2022-11-09T23:41:00.776Z,67.89
2022-11-09T23:44:04.135Z,67.57
2022-11-09T23:47:11.792Z,67.57
2022-11-09T23:50:13.161Z,66.95
2022-11-09T23:53:20.026Z,67.41
2022-11-09T23:56:22.267Z,67.39
2022-11-09T23:59:30.877Z,67.13
